createdAt,value
2022-09-06T00:01:10.099Z,19.78
2022-09-06T00:03:37.660Z,19.74
2022-09-06T00:06:09.323Z,19.72
2022-09-06T00:08:36.957Z,19.70
2022-09-06T00:11:04.701Z,19.69
2022-09-06T00:13:34.179Z,19.68
2022-09-06T00:16:11.916Z,19.67
2022-09-06T00:18:39.576Z,19.66
2022-09-06T00:21:14.447Z,19.65
2022-09-06T00:23:42.106Z,19.64
2022-09-06T00:26:09.650Z,19.63
2022-09-06T00:28:38.812Z,19.64
2022-09-06T00:31:10.259Z,19.63
2022-09-06T00:33:37.919Z,19.65
2022-09-06T00:36:05.511Z,19.65
2022-09-06T00:38:33.055Z,19.64
2022-09-06T00:41:00.611Z,19.64
2022-09-06T00:43:28.175Z,19.64
2022-09-06T00:45:57.293Z,19.63
2022-09-06T00:48:25.387Z,19.63
2022-09-06T00:50:54.437Z,19.63
2022-09-06T00:53:22.283Z,19.64
2022-09-06T00:55:50.119Z,19.64
2022-09-06T00:58:17.930Z,19.64
2022-09-06T01:00:45.849Z,19.65
2022-09-06T01:03:15.198Z,19.68
2022-09-06T01:05:49.674Z,19.68
2022-09-06T01:08:30.848Z,19.67
2022-09-06T01:11:05.361Z,19.65
2022-09-06T01:13:38.316Z,19.62
2022-09-06T01:16:12.699Z,19.60
2022-09-06T01:18:50.797Z,19.59
2022-09-06T01:21:22.936Z,19.59
2022-09-06T01:24:02.635Z,19.57
2022-09-06T01:26:44.985Z,19.53
2022-09-06T01:29:16.929Z,19.51
2022-09-06T01:31:47.370Z,19.51
2022-09-06T01:34:21.268Z,19.53
2022-09-06T01:37:09.052Z,19.53
2022-09-06T01:39:38.458Z,19.53
2022-09-06T01:42:08.596Z,19.52
2022-09-06T01:44:38.720Z,19.52
2022-09-06T01:47:12.776Z,19.51
2022-09-06T01:49:46.918Z,19.51
2022-09-06T01:52:17.850Z,19.50
2022-09-06T01:54:58.265Z,19.50
2022-09-06T01:57:32.956Z,19.48
2022-09-06T02:00:07.760Z,19.46
2022-09-06T02:02:47.278Z,19.44
2022-09-06T02:05:18.707Z,19.42
2022-09-06T02:07:47.840Z,19.41
2022-09-06T02:10:17.888Z,19.39
2022-09-06T02:12:47.419Z,19.39
2022-09-06T02:15:17.914Z,19.38
2022-09-06T02:17:49.655Z,19.36
2022-09-06T02:20:18.921Z,19.35
2022-09-06T02:22:48.319Z,19.35
2022-09-06T02:25:19.732Z,19.34
2022-09-06T02:27:47.382Z,19.34
2022-09-06T02:30:16.439Z,19.34
2022-09-06T02:32:47.098Z,19.33
2022-09-06T02:35:16.187Z,19.32
2022-09-06T02:37:44.462Z,19.30
2022-09-06T02:40:12.427Z,19.28
2022-09-06T02:42:40.600Z,19.30
2022-09-06T02:45:08.676Z,19.30
2022-09-06T02:47:37.611Z,19.30
2022-09-06T02:50:05.297Z,19.28
2022-09-06T02:52:32.864Z,19.29
2022-09-06T02:55:00.498Z,19.29
2022-09-06T02:57:28.064Z,19.28
2022-09-06T02:59:55.650Z,19.31
2022-09-06T03:02:23.335Z,19.32
2022-09-06T03:04:52.349Z,19.32
2022-09-06T03:07:19.881Z,19.32
2022-09-06T03:09:47.397Z,19.31
2022-09-06T03:12:14.919Z,19.32
2022-09-06T03:14:42.454Z,19.32
2022-09-06T03:17:10.012Z,19.32
2022-09-06T03:19:37.534Z,19.34
2022-09-06T03:22:06.485Z,19.34
2022-09-06T03:24:34.031Z,19.33
2022-09-06T03:27:01.584Z,19.33
2022-09-06T03:29:29.127Z,19.36
2022-09-06T03:31:56.713Z,19.38
2022-09-06T03:34:24.357Z,19.38
2022-09-06T03:36:51.889Z,19.37
2022-09-06T03:39:21.254Z,19.37
2022-09-06T03:41:48.795Z,19.37
2022-09-06T03:44:16.309Z,19.36
2022-09-06T03:46:43.808Z,19.34
2022-09-06T03:49:11.398Z,19.35
2022-09-06T03:51:38.920Z,19.35
2022-09-06T03:54:06.648Z,19.35
2022-09-06T03:56:35.689Z,19.35
2022-09-06T03:59:03.264Z,19.33
2022-09-06T04:01:30.933Z,19.32
2022-09-06T04:03:58.635Z,19.32
2022-09-06T04:06:26.166Z,19.32
2022-09-06T04:08:53.753Z,19.30
2022-09-06T04:11:21.365Z,19.30
2022-09-06T04:13:50.293Z,19.29
2022-09-06T04:16:18.716Z,19.27
2022-09-06T04:18:46.318Z,19.25
2022-09-06T04:21:13.858Z,19.23
2022-09-06T04:23:41.468Z,19.23
2022-09-06T04:26:09.026Z,19.22
2022-09-06T04:28:36.582Z,19.20
2022-09-06T04:31:05.710Z,19.19
2022-09-06T04:33:34.206Z,19.20
2022-09-06T04:36:02.843Z,19.21
2022-09-06T04:38:31.893Z,19.21
2022-09-06T04:40:59.374Z,19.22
2022-09-06T04:43:26.888Z,19.19
2022-09-06T04:45:54.536Z,19.22
2022-09-06T04:48:23.564Z,19.23
2022-09-06T04:50:51.065Z,19.24
2022-09-06T04:53:18.659Z,19.25
2022-09-06T04:55:46.259Z,19.23
2022-09-06T04:58:13.791Z,19.21
2022-09-06T05:00:44.507Z,19.18
2022-09-06T05:03:12.128Z,19.15
2022-09-06T05:05:41.024Z,19.14
2022-09-06T05:08:08.590Z,19.11
2022-09-06T05:10:36.147Z,19.11
2022-09-06T05:13:03.657Z,19.07
2022-09-06T05:15:31.168Z,19.04
2022-09-06T05:18:03.161Z,19.02
2022-09-06T05:20:30.675Z,19.02
2022-09-06T05:22:59.585Z,19.00
2022-09-06T05:25:27.143Z,19.01
2022-09-06T05:27:54.705Z,19.00
2022-09-06T05:30:22.297Z,18.98
2022-09-06T05:32:49.811Z,18.96
2022-09-06T05:35:17.335Z,19.01
2022-09-06T05:37:44.913Z,19.09
2022-09-06T05:40:15.544Z,19.20
2022-09-06T05:42:43.107Z,19.28
2022-09-06T05:45:11.053Z,19.35
2022-09-06T05:47:38.556Z,19.39
2022-09-06T05:50:06.937Z,19.42
2022-09-06T05:52:35.082Z,19.45
2022-09-06T05:55:02.767Z,19.50
2022-09-06T05:57:31.646Z,19.52
2022-09-06T05:59:59.336Z,19.56
2022-09-06T06:02:26.913Z,19.60
2022-09-06T06:04:55.524Z,19.63
2022-09-06T06:07:23.081Z,19.62
2022-09-06T06:09:50.593Z,19.61
2022-09-06T06:12:18.141Z,19.59
2022-09-06T06:14:47.012Z,19.59
2022-09-06T06:17:14.588Z,19.58
2022-09-06T06:19:42.105Z,19.58
2022-09-06T06:22:09.607Z,19.59
2022-09-06T06:24:37.205Z,19.62
2022-09-06T06:27:04.970Z,19.65
2022-09-06T06:29:32.578Z,19.68
2022-09-06T06:32:01.500Z,19.72
2022-09-06T06:34:29.082Z,19.76
2022-09-06T06:36:56.601Z,19.80
2022-09-06T06:39:24.188Z,19.86
2022-09-06T06:41:51.802Z,19.91
2022-09-06T06:44:32.171Z,20.01
2022-09-06T06:47:02.562Z,20.12
2022-09-06T06:49:30.145Z,20.23
2022-09-06T06:51:57.698Z,20.30
2022-09-06T06:54:25.240Z,20.44
2022-09-06T06:56:52.799Z,20.56
2022-09-06T06:59:20.563Z,20.62
2022-09-06T07:01:49.895Z,20.69
2022-09-06T07:04:19.140Z,20.74
2022-09-06T07:12:22.531Z,21.00
2022-09-06T07:14:50.023Z,21.13
2022-09-06T07:22:33.850Z,22.29
2022-09-06T07:25:01.673Z,22.88
2022-09-06T07:30:16.748Z,23.87
2022-09-06T07:32:44.268Z,24.38
2022-09-06T07:35:13.824Z,24.80
2022-09-06T07:37:41.416Z,25.35
2022-09-06T07:40:09.748Z,25.88
2022-09-06T07:42:37.390Z,26.12
2022-09-06T07:45:05.226Z,26.17
2022-09-06T07:53:13.013Z,25.87
2022-09-06T07:55:43.314Z,25.98
2022-09-06T07:58:11.005Z,26.30
2022-09-06T08:00:41.121Z,26.69
2022-09-06T08:03:08.933Z,27.07
2022-09-06T08:11:13.654Z,28.59
2022-09-06T08:13:42.174Z,28.79
2022-09-06T08:16:11.330Z,28.90
2022-09-06T08:18:39.241Z,29.16
2022-09-06T08:21:12.168Z,29.47
2022-09-06T08:23:43.081Z,29.72
2022-09-06T08:26:10.725Z,29.99
2022-09-06T08:28:38.338Z,30.35
2022-09-06T08:31:06.343Z,30.78
2022-09-06T08:33:33.980Z,31.09
2022-09-06T08:36:01.624Z,31.42
2022-09-06T08:38:30.768Z,31.57
2022-09-06T08:41:07.898Z,31.69
2022-09-06T08:43:35.431Z,31.92
2022-09-06T08:46:04.230Z,32.01
2022-09-06T08:48:34.469Z,32.11
2022-09-06T08:51:09.952Z,32.40
2022-09-06T08:53:41.489Z,32.76
2022-09-06T08:56:14.220Z,32.69
2022-09-06T08:58:59.049Z,32.70
2022-09-06T09:01:33.514Z,32.59
2022-09-06T09:04:03.827Z,32.07
2022-09-06T09:06:33.007Z,31.70
2022-09-06T09:09:05.248Z,31.56
2022-09-06T09:11:33.667Z,31.46
2022-09-06T09:14:04.813Z,31.32
2022-09-06T09:16:32.541Z,31.45
2022-09-06T09:19:01.217Z,31.50
2022-09-06T09:21:30.974Z,31.31
2022-09-06T09:23:59.825Z,30.96
2022-09-06T09:26:31.987Z,30.50
2022-09-06T09:29:09.915Z,29.80
2022-09-06T09:31:39.323Z,29.27
2022-09-06T09:34:11.429Z,29.20
2022-09-06T09:36:39.372Z,29.01
2022-09-06T09:39:10.276Z,28.58
2022-09-06T09:41:41.212Z,28.24
2022-09-06T09:44:10.990Z,28.30
2022-09-06T09:46:40.063Z,28.67
2022-09-06T09:49:09.189Z,28.85
2022-09-06T09:51:37.565Z,28.80
2022-09-06T09:54:06.703Z,28.90
2022-09-06T09:56:41.080Z,28.94
2022-09-06T09:59:16.541Z,28.97
2022-09-06T10:01:44.099Z,28.93
2022-09-06T10:07:14.327Z,29.24
2022-09-06T10:09:42.856Z,29.63
2022-09-06T10:12:14.562Z,29.75
2022-09-06T10:14:43.039Z,29.71
2022-09-06T10:17:18.600Z,29.43
2022-09-06T10:19:47.297Z,29.31
2022-09-06T10:22:27.263Z,29.05
2022-09-06T10:25:15.800Z,29.08
2022-09-06T10:28:10.579Z,29.37
2022-09-06T10:30:44.156Z,29.89
2022-09-06T10:33:19.673Z,30.19
2022-09-06T10:35:47.283Z,30.13
2022-09-06T10:38:25.803Z,30.06
2022-09-06T10:40:57.681Z,30.03
2022-09-06T10:43:28.128Z,29.74
2022-09-06T10:45:59.074Z,29.55
2022-09-06T10:48:29.690Z,29.36
2022-09-06T10:50:59.738Z,28.89
2022-09-06T10:53:33.504Z,28.53
2022-09-06T10:56:05.734Z,28.25
2022-09-06T11:01:30.314Z,28.38
2022-09-06T11:04:04.435Z,28.82
2022-09-06T11:06:38.001Z,29.06
2022-09-06T11:09:10.754Z,29.13
2022-09-06T11:11:42.698Z,28.75
2022-09-06T11:14:13.339Z,28.36
2022-09-06T11:16:44.599Z,28.33
2022-09-06T11:19:17.559Z,28.29
2022-09-06T11:21:54.227Z,28.22
2022-09-06T11:24:30.513Z,28.23
2022-09-06T11:27:01.831Z,27.83
2022-09-06T11:29:31.932Z,27.43
2022-09-06T11:32:16.663Z,27.12
2022-09-06T11:34:52.820Z,26.85
2022-09-06T11:37:25.579Z,26.84
2022-09-06T11:43:18.812Z,26.85
2022-09-06T11:45:49.608Z,26.92
2022-09-06T11:48:37.602Z,27.10
2022-09-06T11:51:07.574Z,26.95
2022-09-06T11:53:36.315Z,26.83
2022-09-06T11:56:12.443Z,26.86
2022-09-06T11:58:48.591Z,27.06
2022-09-06T12:01:37.826Z,27.39
2022-09-06T12:04:10.442Z,27.75
2022-09-06T12:06:39.792Z,28.02
2022-09-06T12:09:26.255Z,28.35
2022-09-06T12:11:55.884Z,28.72
2022-09-06T12:14:31.244Z,28.75
2022-09-06T12:17:25.879Z,28.73
2022-09-06T12:19:56.190Z,28.67
2022-09-06T12:22:42.260Z,28.50
2022-09-06T12:25:17.177Z,28.34
2022-09-06T12:27:52.137Z,28.12
2022-09-06T12:30:31.699Z,27.88
2022-09-06T12:32:59.604Z,27.89
2022-09-06T12:38:23.254Z,27.78
2022-09-06T12:40:56.362Z,27.93
2022-09-06T12:43:23.904Z,27.96
2022-09-06T12:45:52.538Z,28.08
2022-09-06T12:48:26.992Z,27.85
2022-09-06T12:51:03.100Z,27.47
2022-09-06T12:53:31.690Z,27.38
2022-09-06T12:56:09.182Z,27.20
2022-09-06T12:58:38.673Z,27.12
2022-09-06T13:01:12.439Z,27.07
2022-09-06T13:03:41.850Z,27.11
2022-09-06T13:06:13.722Z,27.22
2022-09-06T13:08:45.492Z,27.22
2022-09-06T13:11:14.599Z,27.30
2022-09-06T13:13:47.522Z,27.40
2022-09-06T13:16:19.961Z,27.49
2022-09-06T13:18:47.702Z,27.47
2022-09-06T13:21:25.446Z,27.37
2022-09-06T13:23:53.033Z,27.21
2022-09-06T13:26:33.068Z,27.16
2022-09-06T13:29:09.738Z,27.07
2022-09-06T13:31:37.419Z,26.87
2022-09-06T13:34:05.037Z,26.78
2022-09-06T13:36:34.055Z,26.73
2022-09-06T13:39:04.282Z,26.74
2022-09-06T13:41:37.504Z,26.79
2022-09-06T13:44:06.046Z,26.83
2022-09-06T13:46:35.103Z,26.81
2022-09-06T13:49:02.988Z,26.89
2022-09-06T13:51:30.610Z,27.00
2022-09-06T13:54:07.602Z,26.91
2022-09-06T13:56:35.180Z,26.81
2022-09-06T13:59:02.767Z,26.84
2022-09-06T14:01:30.505Z,26.65
2022-09-06T14:03:58.215Z,26.34
2022-09-06T14:06:25.842Z,25.90
2022-09-06T14:09:06.830Z,25.58
2022-09-06T14:11:36.899Z,25.44
2022-09-06T14:14:04.595Z,25.27
2022-09-06T14:16:32.289Z,25.15
2022-09-06T14:18:59.820Z,25.02
2022-09-06T14:21:27.645Z,24.91
2022-09-06T14:23:55.235Z,24.82
2022-09-06T14:26:23.564Z,24.67
2022-09-06T14:28:52.577Z,24.53
2022-09-06T14:31:21.080Z,24.44
2022-09-06T14:33:48.700Z,24.28
2022-09-06T14:36:17.509Z,24.18
2022-09-06T14:38:45.853Z,24.22
2022-09-06T14:41:14.666Z,24.13
2022-09-06T14:43:43.346Z,24.13
2022-09-06T14:46:13.745Z,24.17
2022-09-06T14:48:42.505Z,24.08
2022-09-06T14:51:11.216Z,24.02
2022-09-06T14:53:40.926Z,23.94
2022-09-06T14:56:09.277Z,23.88
2022-09-06T14:58:38.035Z,23.91
2022-09-06T15:01:09.774Z,23.91
2022-09-06T15:03:38.817Z,23.94
2022-09-06T15:06:06.558Z,23.91
2022-09-06T15:08:34.109Z,23.88
2022-09-06T15:11:02.075Z,23.81
2022-09-06T15:13:29.713Z,23.75
2022-09-06T15:15:57.836Z,23.70
2022-09-06T15:18:25.427Z,23.69
2022-09-06T15:20:54.598Z,23.75
2022-09-06T15:23:25.059Z,23.79
2022-09-06T15:25:54.114Z,23.77
2022-09-06T15:28:21.839Z,23.75
2022-09-06T15:30:49.892Z,23.77
2022-09-06T15:33:17.799Z,23.75
2022-09-06T15:35:45.306Z,23.66
2022-09-06T15:38:14.236Z,23.59
2022-09-06T15:40:41.882Z,23.54
2022-09-06T15:43:09.436Z,23.50
2022-09-06T15:45:46.169Z,23.46
2022-09-06T15:48:15.096Z,23.42
2022-09-06T15:50:51.403Z,23.49
2022-09-06T15:53:21.004Z,23.58
2022-09-06T15:55:58.008Z,23.62
2022-09-06T15:58:26.611Z,23.62
2022-09-06T16:01:00.996Z,23.67
2022-09-06T16:03:28.813Z,23.72
2022-09-06T16:08:50.905Z,23.91
2022-09-06T16:11:19.326Z,23.97
2022-09-06T16:13:47.042Z,24.00
2022-09-06T16:16:16.002Z,24.05
2022-09-06T16:18:44.375Z,24.09
2022-09-06T16:21:12.806Z,24.06
2022-09-06T16:23:41.217Z,23.99
2022-09-06T16:26:10.282Z,24.00
2022-09-06T16:28:38.556Z,23.97
2022-09-06T16:31:07.531Z,23.87
2022-09-06T16:33:36.143Z,23.75
2022-09-06T16:36:05.184Z,23.69
2022-09-06T16:38:33.388Z,23.63
2022-09-06T16:41:02.083Z,23.56
2022-09-06T16:43:34.328Z,23.47
2022-09-06T16:46:03.045Z,23.43
2022-09-06T16:48:31.052Z,23.45
2022-09-06T16:50:58.584Z,23.45
2022-09-06T16:53:26.152Z,23.41
2022-09-06T16:55:53.835Z,23.40
2022-09-06T16:58:21.743Z,23.43
2022-09-06T17:00:51.802Z,23.46
2022-09-06T17:03:19.374Z,23.41
2022-09-06T17:05:50.533Z,23.38
2022-09-06T17:08:18.087Z,23.41
2022-09-06T17:10:45.711Z,23.41
2022-09-06T17:13:13.609Z,23.41
2022-09-06T17:15:55.103Z,23.42
2022-09-06T17:18:25.168Z,23.38
2022-09-06T17:20:56.757Z,23.33
2022-09-06T17:23:24.519Z,23.30
2022-09-06T17:25:52.134Z,23.29
2022-09-06T17:28:19.765Z,23.28
2022-09-06T17:30:47.758Z,23.26
2022-09-06T17:33:17.596Z,23.22
2022-09-06T17:35:46.953Z,23.20
2022-09-06T17:38:15.717Z,23.17
2022-09-06T17:40:43.313Z,23.12
2022-09-06T17:43:10.869Z,23.07
2022-09-06T17:45:39.102Z,23.00
2022-09-06T17:48:06.755Z,22.95
2022-09-06T17:50:34.544Z,22.89
2022-09-06T17:53:03.550Z,22.84
2022-09-06T17:55:31.280Z,22.80
2022-09-06T17:57:59.463Z,22.76
2022-09-06T18:00:27.048Z,22.68
2022-09-06T18:02:55.202Z,22.63
2022-09-06T18:05:22.973Z,22.60
2022-09-06T18:07:50.652Z,22.56
2022-09-06T18:10:19.662Z,22.53
2022-09-06T18:12:47.220Z,22.50
2022-09-06T18:15:14.795Z,22.45
2022-09-06T18:17:42.345Z,22.40
2022-09-06T18:35:30.380Z,22.10
2022-09-06T18:37:57.894Z,22.05
2022-09-06T18:40:25.473Z,22.00
2022-09-06T18:42:53.070Z,21.97
2022-09-06T18:45:20.621Z,21.94
2022-09-06T18:47:49.235Z,21.91
2022-09-06T18:50:17.083Z,21.88
2022-09-06T18:52:45.995Z,21.84
2022-09-06T18:55:13.577Z,21.79
2022-09-06T18:57:41.163Z,21.76
2022-09-06T19:00:09.624Z,21.73
2022-09-06T19:02:37.221Z,21.72
2022-09-06T19:05:05.181Z,21.69
2022-09-06T19:07:32.828Z,21.69
2022-09-06T19:10:01.711Z,21.63
2022-09-06T19:12:29.244Z,21.59
2022-09-06T19:14:56.797Z,21.57
2022-09-06T19:17:24.413Z,21.55
2022-09-06T19:19:51.939Z,21.54
2022-09-06T19:22:20.065Z,21.52
2022-09-06T19:24:47.590Z,21.48
2022-09-06T19:27:16.681Z,21.44
2022-09-06T19:32:11.900Z,21.33
2022-09-06T19:34:39.777Z,21.30
2022-09-06T19:37:07.337Z,21.25
2022-09-06T19:39:37.131Z,21.23
2022-09-06T19:42:05.854Z,21.19
2022-09-06T19:44:34.875Z,21.18
2022-09-06T19:47:02.511Z,21.16
2022-09-06T19:49:30.727Z,21.14
2022-09-06T19:51:58.289Z,21.13
2022-09-06T19:54:25.833Z,21.12
2022-09-06T19:56:53.484Z,21.10
2022-09-06T19:59:21.017Z,21.07
2022-09-06T20:01:50.105Z,21.06
2022-09-06T20:04:17.855Z,21.03
2022-09-06T20:06:45.460Z,20.99
2022-09-06T20:09:13.351Z,20.96
2022-09-06T20:11:41.677Z,20.91
2022-09-06T20:14:09.674Z,20.88
2022-09-06T20:16:41.428Z,20.85
2022-09-06T20:19:11.910Z,20.81
2022-09-06T20:21:39.592Z,20.78
2022-09-06T20:24:07.458Z,20.76
2022-09-06T20:26:35.310Z,20.72
2022-09-06T20:29:04.548Z,20.69
2022-09-06T20:31:32.762Z,20.67
2022-09-06T20:34:01.285Z,20.62
2022-09-06T20:36:30.538Z,20.61
2022-09-06T20:38:58.176Z,20.59
2022-09-06T20:41:26.665Z,20.57
2022-09-06T20:43:55.861Z,20.56
2022-09-06T20:46:24.559Z,20.56
2022-09-06T20:48:52.751Z,20.56
2022-09-06T20:51:21.468Z,20.55
2022-09-06T20:53:52.765Z,20.54
2022-09-06T20:56:21.256Z,20.53
2022-09-06T20:58:49.523Z,20.50
2022-09-06T21:01:19.475Z,20.49
2022-09-06T21:03:47.118Z,20.47
2022-09-06T21:06:14.659Z,20.45
2022-09-06T21:08:43.249Z,20.43
2022-09-06T21:11:12.319Z,20.43
2022-09-06T21:13:40.251Z,20.43
2022-09-06T21:16:08.068Z,20.42
2022-09-06T21:18:36.189Z,20.42
2022-09-06T21:21:04.659Z,20.42
2022-09-06T21:23:33.859Z,20.41
2022-09-06T21:26:02.381Z,20.42
2022-09-06T21:28:32.381Z,20.43
2022-09-06T21:31:03.676Z,20.44
2022-09-06T21:33:32.307Z,20.42
2022-09-06T21:36:03.083Z,20.40
2022-09-06T21:38:31.050Z,20.41
2022-09-06T21:40:58.788Z,20.39
2022-09-06T21:43:26.401Z,20.37
2022-09-06T21:45:55.338Z,20.37
2022-09-06T21:48:22.943Z,20.34
2022-09-06T21:50:50.949Z,20.33
2022-09-06T21:53:19.142Z,20.31
2022-09-06T22:08:15.484Z,20.28
2022-09-06T22:11:32.437Z,20.32
2022-09-06T22:21:48.005Z,20.12
2022-09-06T22:24:17.428Z,20.09
2022-09-06T22:30:38.437Z,20.03
2022-09-06T22:33:05.954Z,19.96
